Time,TemperatureF,DewpointF,PressureIn,WindDirection,WindDirectionDegrees,WindSpeedMPH,WindSpeedGustMPH,Humidity,HourlyPrecipIn,Conditions,Clouds,dailyrainin,SoftwareType,DateUTC
2013-01-29 00:02:00,44.2,40.6,29.73,NW,315,0.0,0.0,87,0.00,,,0.00,meteohub,2013-01-29 08:02:00,
2013-01-29 00:07:00,44.2,40.6,29.73,NW,315,0.0,0.0,87,0.00,,,0.00,meteohub,2013-01-29 08:07:00,
2013-01-29 00:12:00,44.2,41.0,29.73,WSW,248,0.0,0.0,88,0.00,,,0.00,meteohub,2013-01-29 08:12:00,
2013-01-29 00:17:00,44.2,41.0,29.73,WSW,248,0.0,0.0,88,0.00,,,0.00,meteohub,2013-01-29 08:17:00,
2013-01-29 00:22:00,44.2,41.0,29.73,North,0,0.0,0.0,88,0.00,,,0.00,meteohub,2013-01-29 08:22:00,
2013-01-29 00:27:00,44.2,41.0,29.73,NW,315,0.0,0.0,88,0.00,,,0.00,meteohub,2013-01-29 08:27:00,
2013-01-29 00:32:00,44.4,41.2,29.73,NW,315,0.0,0.0,88,0.00,,,0.00,meteohub,2013-01-29 08:32:00,
2013-01-29 00:37:00,44.4,40.8,29.73,NW,315,0.0,0.0,87,0.00,,,0.00,meteohub,2013-01-29 08:37:00,
2013-01-29 00:42:00,44.2,40.6,29.73,West,270,0.0,0.0,87,0.00,,,0.00,meteohub,2013-01-29 08:42:00,
2013-01-29 00:47:00,44.2,40.6,29.73,NW,315,0.0,0.0,87,0.00,,,0.00,meteohub,2013-01-29 08:47:00,
2013-01-29 00:52:00,44.2,40.6,29.73,NW,315,0.0,0.0,87,0.00,,,0.00,meteohub,2013-01-29 08:52:00,
2013-01-29 00:57:00,44.2,40.6,29.73,North,0,0.0,0.0,87,0.00,,,0.00,meteohub,2013-01-29 08:57:00,
2013-01-29 01:02:00,44.1,40.5,29.73,North,0,0.0,0.0,87,0.00,,,0.00,meteohub,2013-01-29 09:02:00,
2013-01-29 01:07:00,44.1,40.5,29.74,North,0,0.0,0.0,87,0.00,,,0.00,meteohub,2013-01-29 09:07:00,
2013-01-29 01:12:00,43.9,40.3,29.73,North,0,0.0,0.0,87,0.00,,,0.00,meteohub,2013-01-29 09:12:00,
2013-01-29 01:17:00,43.7,40.1,29.73,North,0,0.0,0.0,87,0.00,,,0.00,meteohub,2013-01-29 09:17:00,
2013-01-29 01:22:00,43.7,40.5,29.73,WSW,248,0.0,0.0,88,0.00,,,0.00,meteohub,2013-01-29 09:22:00,
2013-01-29 01:27:00,43.5,40.3,29.73,SW,225,0.0,0.0,88,0.00,,,0.00,meteohub,2013-01-29 09:27:00,
2013-01-29 01:32:00,43.5,40.3,29.74,SW,225,0.0,0.0,88,0.00,,,0.00,meteohub,2013-01-29 09:32:00,
2013-01-29 01:37:00,43.5,40.3,29.74,SW,225,0.0,0.0,88,0.00,,,0.00,meteohub,2013-01-29 09:37:00,
2013-01-29 01:42:00,43.3,40.1,29.74,SW,225,0.0,0.0,88,0.00,,,0.00,meteohub,2013-01-29 09:42:00,
2013-01-29 01:47:00,43.2,39.9,29.74,SW,225,0.0,0.0,88,0.00,,,0.00,meteohub,2013-01-29 09:47:00,
2013-01-29 01:52:00,43.2,40.1,29.74,SW,225,0.0,0.0,89,0.00,,,0.00,meteohub,2013-01-29 09:52:00,
2013-01-29 01:57:00,43.0,39.9,29.74,SW,225,0.0,0.0,89,0.00,,,0.00,meteohub,2013-01-29 09:57:00,
2013-01-29 02:02:00,43.0,39.9,29.75,SW,225,0.0,0.0,89,0.00,,,0.00,meteohub,2013-01-29 10:02:00,
2013-01-29 02:07:00,43.0,39.9,29.74,SW,225,0.0,0.0,89,0.00,,,0.00,meteohub,2013-01-29 10:07:00,
2013-01-29 02:12:00,43.2,40.1,29.75,NW,315,0.0,0.0,89,0.00,,,0.00,meteohub,2013-01-29 10:12:00,
2013-01-29 02:17:00,43.2,40.1,29.75,NW,315,0.0,0.0,89,0.00,,,0.00,meteohub,2013-01-29 10:17:00,
2013-01-29 02:22:00,43.2,40.5,29.75,NW,315,0.0,0.0,90,0.00,,,0.00,meteohub,2013-01-29 10:22:00,
2013-01-29 02:27:00,43.3,40.6,29.75,NW,315,0.0,0.0,90,0.00,,,0.00,meteohub,2013-01-29 10:27:00,
2013-01-29 02:32:00,43.3,40.6,29.75,SW,225,0.0,0.0,90,0.00,,,0.00,meteohub,2013-01-29 10:32:00,
2013-01-29 02:37:00,43.5,40.8,29.75,SW,225,0.0,0.0,90,0.00,,,0.00,meteohub,2013-01-29 10:37:00,
2013-01-29 02:42:00,43.5,40.8,29.75,North,0,0.0,0.0,90,0.00,,,0.00,meteohub,2013-01-29 10:42:00,
2013-01-29 02:47:00,43.7,41.0,29.75,WSW,248,0.0,0.0,90,0.00,,,0.00,meteohub,2013-01-29 10:47:00,
2013-01-29 02:52:00,43.9,41.2,29.75,North,0,0.0,0.0,90,0.00,,,0.00,meteohub,2013-01-29 10:52:00,
2013-01-29 02:57:00,43.9,41.2,29.76,North,0,0.0,0.0,90,0.00,,,0.00,meteohub,2013-01-29 10:57:00,
2013-01-29 03:02:00,44.2,41.5,29.75,NW,315,0.0,0.0,90,0.00,,,0.00,meteohub,2013-01-29 11:02:00,
2013-01-29 03:07:00,44.4,41.7,29.75,North,0,0.0,0.0,90,0.00,,,0.00,meteohub,2013-01-29 11:07:00,
2013-01-29 03:12:00,44.8,41.4,29.75,North,0,0.0,0.0,88,0.00,,,0.00,meteohub,2013-01-29 11:12:00,
2013-01-29 03:17:00,44.8,41.4,29.75,West,270,0.0,0.0,88,0.00,,,0.00,meteohub,2013-01-29 11:17:00,
2013-01-29 03:22:00,44.8,41.2,29.75,East,90,0.0,0.0,87,0.00,,,0.00,meteohub,2013-01-29 11:22:00,
2013-01-29 03:27:00,44.8,41.2,29.75,East,90,0.0,0.0,87,0.00,,,0.00,meteohub,2013-01-29 11:27:00,
2013-01-29 03:32:00,44.4,40.8,29.75,South,180,0.0,0.0,87,0.00,,,0.00,meteohub,2013-01-29 11:32:00,
2013-01-29 03:37:00,44.2,40.6,29.75,NW,315,0.0,0.0,87,0.00,,,0.00,meteohub,2013-01-29 11:37:00,
2013-01-29 03:42:00,44.2,40.6,29.75,NW,315,0.0,0.0,87,0.00,,,0.00,meteohub,2013-01-29 11:42:00,
2013-01-29 03:47:00,43.9,40.3,29.75,NW,315,0.0,0.0,87,0.00,,,0.00,meteohub,2013-01-29 11:47:00,
2013-01-29 03:52:00,43.7,40.1,29.75,West,270,0.0,0.0,87,0.00,,,0.00,meteohub,2013-01-29 11:52:00,
2013-01-29 03:57:00,43.5,39.9,29.74,West,270,0.0,0.0,87,0.00,,,0.00,meteohub,2013-01-29 11:57:00,
2013-01-29 04:02:00,43.5,39.9,29.75,North,0,0.0,0.0,87,0.00,,,0.00,meteohub,2013-01-29 12:02:00,
2013-01-29 04:07:00,43.5,39.9,29.75,North,0,0.0,0.0,87,0.00,,,0.00,meteohub,2013-01-29 12:07:00,
2013-01-29 04:12:00,43.3,40.1,29.75,North,0,0.0,0.0,88,0.00,,,0.00,meteohub,2013-01-29 12:12:00,
2013-01-29 04:17:00,43.2,39.9,29.75,NE,45,0.0,0.0,88,0.00,,,0.00,meteohub,2013-01-29 12:17:00,
2013-01-29 04:22:00,43.2,40.1,29.75,NW,315,0.0,0.0,89,0.00,,,0.00,meteohub,2013-01-29 12:22:00,
2013-01-29 04:27:00,43.2,40.1,29.74,SSW,203,0.0,0.0,89,0.00,,,0.00,meteohub,2013-01-29 12:27:00,
2013-01-29 04:32:00,43.2,40.1,29.74,SSW,203,0.0,0.0,89,0.00,,,0.00,meteohub,2013-01-29 12:32:00,
2013-01-29 04:37:00,43.0,39.9,29.74,NW,315,0.0,0.0,89,0.00,,,0.00,meteohub,2013-01-29 12:37:00,
2013-01-29 04:42:00,43.0,39.9,29.74,North,0,0.0,0.0,89,0.00,,,0.00,meteohub,2013-01-29 12:42:00,
2013-01-29 04:47:00,43.0,39.9,29.75,West,270,0.0,0.0,89,0.00,,,0.00,meteohub,2013-01-29 12:47:00,
2013-01-29 04:52:00,43.0,39.9,29.75,North,0,0.0,0.0,89,0.00,,,0.00,meteohub,2013-01-29 12:52:00,
2013-01-29 04:57:00,43.2,40.1,29.75,NE,45,0.0,0.0,89,0.00,,,0.00,meteohub,2013-01-29 12:57:00,
2013-01-29 05:02:00,43.2,40.1,29.74,NE,45,0.0,0.0,89,0.00,,,0.00,meteohub,2013-01-29 13:02:00,
2013-01-29 05:07:00,43.2,40.1,29.75,East,90,0.0,0.0,89,0.00,,,0.00,meteohub,2013-01-29 13:07:00,
2013-01-29 05:12:00,43.2,40.1,29.74,West,270,0.0,0.0,89,0.00,,,0.00,meteohub,2013-01-29 13:12:00,
2013-01-29 05:17:00,43.3,40.3,29.75,East,90,0.0,0.0,89,0.00,,,0.00,meteohub,2013-01-29 13:17:00,
2013-01-29 05:22:00,43.5,40.5,29.75,North,0,0.0,0.0,89,0.00,,,0.00,meteohub,2013-01-29 13:22:00,
2013-01-29 05:27:00,43.5,40.5,29.75,NE,45,0.0,0.0,89,0.00,,,0.00,meteohub,2013-01-29 13:27:00,
2013-01-29 05:32:00,43.3,40.3,29.75,NE,45,0.0,0.0,89,0.00,,,0.00,meteohub,2013-01-29 13:32:00,
2013-01-29 05:37:00,43.3,40.3,29.76,NE,45,0.0,0.0,89,0.00,,,0.00,meteohub,2013-01-29 13:37:00,
2013-01-29 05:42:00,43.2,40.1,29.76,North,0,0.0,0.0,89,0.00,,,0.00,meteohub,2013-01-29 13:42:00,
2013-01-29 05:47:00,43.2,40.1,29.76,North,0,0.0,0.0,89,0.00,,,0.00,meteohub,2013-01-29 13:47:00,
2013-01-29 05:52:00,43.2,40.1,29.75,NNE,23,0.0,0.0,89,0.00,,,0.00,meteohub,2013-01-29 13:52:00,
2013-01-29 05:57:00,43.0,39.9,29.75,NNE,23,0.0,0.0,89,0.00,,,0.00,meteohub,2013-01-29 13:57:00,
2013-01-29 06:02:00,43.0,39.9,29.75,SSE,158,0.0,0.0,89,0.00,,,0.00,meteohub,2013-01-29 14:02:00,
2013-01-29 06:07:00,43.0,39.9,29.76,SSE,158,0.0,0.0,89,0.00,,,0.00,meteohub,2013-01-29 14:07:00,
2013-01-29 06:12:00,43.2,40.1,29.76,West,270,0.0,0.0,89,0.00,,,0.00,meteohub,2013-01-29 14:12:00,
2013-01-29 06:17:00,43.2,40.1,29.75,West,270,0.0,0.0,89,0.00,,,0.00,meteohub,2013-01-29 14:17:00,
2013-01-29 06:22:00,43.3,40.3,29.76,West,270,0.0,0.0,89,0.00,,,0.00,meteohub,2013-01-29 14:22:00,
2013-01-29 06:27:00,43.3,40.3,29.76,NE,45,0.0,0.0,89,0.00,,,0.00,meteohub,2013-01-29 14:27:00,
2013-01-29 06:32:00,43.2,40.1,29.77,West,270,0.0,0.0,89,0.00,,,0.00,meteohub,2013-01-29 14:32:00,
2013-01-29 06:37:00,43.2,40.1,29.76,West,270,0.0,0.0,89,0.00,,,0.00,meteohub,2013-01-29 14:37:00,
2013-01-29 06:42:00,43.2,40.1,29.77,West,270,0.0,0.0,89,0.00,,,0.00,meteohub,2013-01-29 14:42:00,
2013-01-29 06:47:00,43.0,39.9,29.77,West,270,0.0,0.0,89,0.00,,,0.00,meteohub,2013-01-29 14:47:00,
2013-01-29 06:52:00,42.8,39.7,29.77,West,270,0.0,0.0,89,0.00,,,0.00,meteohub,2013-01-29 14:52:00,
2013-01-29 06:57:00,42.6,39.9,29.77,SW,225,0.0,0.0,90,0.00,,,0.00,meteohub,2013-01-29 14:57:00,
2013-01-29 07:02:00,42.4,39.7,29.77,SW,225,0.0,0.0,90,0.00,,,0.00,meteohub,2013-01-29 15:02:00,
2013-01-29 07:07:00,42.4,39.7,29.78,SW,225,0.0,0.0,90,0.00,,,0.00,meteohub,2013-01-29 15:07:00,
2013-01-29 07:12:00,42.3,39.6,29.78,SW,225,0.0,0.0,90,0.00,,,0.00,meteohub,2013-01-29 15:12:00,
2013-01-29 07:17:00,42.1,39.4,29.78,SW,225,0.0,0.0,90,0.00,,,0.00,meteohub,2013-01-29 15:17:00,
2013-01-29 07:22:00,42.1,39.4,29.78,SW,225,0.0,0.0,90,0.00,,,0.00,meteohub,2013-01-29 15:22:00,
2013-01-29 07:27:00,41.9,39.2,29.78,NW,315,0.0,0.0,90,0.00,,,0.00,meteohub,2013-01-29 15:27:00,
2013-01-29 07:32:00,41.9,39.2,29.78,NW,315,0.0,0.0,90,0.00,,,0.00,meteohub,2013-01-29 15:32:00,
2013-01-29 07:37:00,41.9,39.2,29.78,NW,315,0.0,0.0,90,0.00,,,0.00,meteohub,2013-01-29 15:37:00,
2013-01-29 07:42:00,41.9,39.2,29.78,NW,315,0.0,0.0,90,0.00,,,0.00,meteohub,2013-01-29 15:42:00,
2013-01-29 07:47:00,41.9,39.4,29.78,NW,315,0.0,0.0,91,0.00,,,0.00,meteohub,2013-01-29 15:47:00,
2013-01-29 07:52:00,41.9,39.4,29.78,NW,315,0.0,0.0,91,0.00,,,0.00,meteohub,2013-01-29 15:52:00,
2013-01-29 07:57:00,41.9,39.4,29.78,NW,315,0.0,0.0,91,0.00,,,0.00,meteohub,2013-01-29 15:57:00,
2013-01-29 08:02:00,42.1,39.6,29.79,NW,315,0.0,0.0,91,0.00,,,0.00,meteohub,2013-01-29 16:02:00,
2013-01-29 08:07:00,42.1,39.6,29.79,NW,315,0.0,0.0,91,0.00,,,0.00,meteohub,2013-01-29 16:07:00,
2013-01-29 08:12:00,42.4,40.3,29.79,NW,315,0.0,0.0,92,0.00,,,0.00,meteohub,2013-01-29 16:12:00,
2013-01-29 08:17:00,42.6,40.5,29.79,NW,315,0.0,0.0,92,0.00,,,0.00,meteohub,2013-01-29 16:17:00,
2013-01-29 08:22:00,42.8,40.3,29.79,NW,315,0.0,0.0,91,0.00,,,0.00,meteohub,2013-01-29 16:22:00,
2013-01-29 08:27:00,43.0,40.5,29.79,NW,315,0.0,0.0,91,0.00,,,0.00,meteohub,2013-01-29 16:27:00,
2013-01-29 08:32:00,43.2,40.6,29.79,NW,315,0.0,0.0,91,0.00,,,0.00,meteohub,2013-01-29 16:32:00,
2013-01-29 08:37:00,43.5,41.0,29.79,NW,315,0.0,0.0,91,0.00,,,0.00,meteohub,2013-01-29 16:37:00,
2013-01-29 08:42:00,43.9,41.4,29.78,NW,315,0.0,0.0,91,0.00,,,0.00,meteohub,2013-01-29 16:42:00,
2013-01-29 08:47:00,44.1,41.5,29.78,NW,315,0.0,0.0,91,0.00,,,0.00,meteohub,2013-01-29 16:47:00,
2013-01-29 08:52:00,44.4,41.9,29.78,NW,315,0.0,0.0,91,0.00,,,0.00,meteohub,2013-01-29 16:52:00,
2013-01-29 08:57:00,44.6,41.9,29.79,NW,315,0.0,0.0,90,0.00,,,0.00,meteohub,2013-01-29 16:57:00,
2013-01-29 09:02:00,45.0,41.9,29.78,NW,315,0.0,0.0,89,0.00,,,0.00,meteohub,2013-01-29 17:02:00,
2013-01-29 09:07:00,45.3,42.3,29.78,NW,315,0.0,0.0,89,0.00,,,0.00,meteohub,2013-01-29 17:07:00,
2013-01-29 09:12:00,45.5,42.4,29.78,NW,315,0.0,0.0,89,0.00,,,0.00,meteohub,2013-01-29 17:12:00,
2013-01-29 09:17:00,45.9,42.8,29.78,NW,315,0.0,0.0,89,0.00,,,0.00,meteohub,2013-01-29 17:17:00,
2013-01-29 09:22:00,46.0,42.6,29.78,NW,315,0.0,0.0,88,0.00,,,0.00,meteohub,2013-01-29 17:22:00,
2013-01-29 09:27:00,46.6,43.0,29.79,West,270,0.0,0.0,87,0.00,,,0.00,meteohub,2013-01-29 17:27:00,
2013-01-29 09:32:00,46.9,43.3,29.78,West,270,0.0,0.0,87,0.00,,,0.00,meteohub,2013-01-29 17:32:00,
2013-01-29 09:37:00,47.3,43.3,29.79,West,270,0.0,0.0,86,0.00,,,0.00,meteohub,2013-01-29 17:37:00,
2013-01-29 09:42:00,47.7,43.0,29.78,WNW,293,0.0,0.0,84,0.00,,,0.00,meteohub,2013-01-29 17:42:00,
2013-01-29 09:47:00,48.2,43.0,29.78,WNW,293,0.0,0.0,82,0.00,,,0.00,meteohub,2013-01-29 17:47:00,
2013-01-29 09:52:00,48.4,42.8,29.78,WNW,293,0.0,0.0,81,0.00,,,0.00,meteohub,2013-01-29 17:52:00,
2013-01-29 09:57:00,48.7,42.8,29.78,South,180,0.0,0.0,80,0.00,,,0.00,meteohub,2013-01-29 17:57:00,
2013-01-29 10:02:00,48.9,42.6,29.79,South,180,0.0,0.0,79,0.00,,,0.00,meteohub,2013-01-29 18:02:00,
2013-01-29 10:08:00,49.5,42.6,29.78,West,270,0.0,0.0,77,0.00,,,0.00,meteohub,2013-01-29 18:08:00,
2013-01-29 10:13:00,49.8,42.6,29.79,North,0,0.0,0.0,76,0.00,,,0.00,meteohub,2013-01-29 18:13:00,
2013-01-29 10:18:00,50.2,42.3,29.78,NW,315,0.0,0.0,74,0.00,,,0.00,meteohub,2013-01-29 18:18:00,
2013-01-29 10:23:00,50.5,42.6,29.78,North,0,0.0,0.0,74,0.00,,,0.00,meteohub,2013-01-29 18:23:00,
2013-01-29 10:28:00,50.7,42.4,29.78,NW,315,0.0,0.0,73,0.00,,,0.00,meteohub,2013-01-29 18:28:00,
2013-01-29 10:33:00,51.3,42.6,29.78,South,180,0.0,0.0,72,0.00,,,0.00,meteohub,2013-01-29 18:33:00,
2013-01-29 10:38:00,51.6,42.4,29.78,South,180,0.0,0.0,71,0.00,,,0.00,meteohub,2013-01-29 18:38:00,
2013-01-29 10:43:00,51.8,41.9,29.78,NW,315,0.0,0.0,69,0.00,,,0.00,meteohub,2013-01-29 18:43:00,
2013-01-29 10:48:00,52.3,41.7,29.78,South,180,0.0,0.0,67,0.00,,,0.00,meteohub,2013-01-29 18:48:00,
2013-01-29 10:53:00,52.9,42.3,29.78,East,90,0.0,0.0,67,0.00,,,0.00,meteohub,2013-01-29 18:53:00,
2013-01-29 10:58:00,53.8,43.2,29.78,SE,135,0.0,0.0,67,0.00,,,0.00,meteohub,2013-01-29 18:58:00,
2013-01-29 11:03:00,54.9,43.7,29.77,North,0,0.0,0.0,66,0.00,,,0.00,meteohub,2013-01-29 19:03:00,
2013-01-29 11:08:00,55.4,43.3,29.77,WSW,248,0.0,0.0,64,0.00,,,0.00,meteohub,2013-01-29 19:08:00,
2013-01-29 11:13:00,56.3,44.2,29.76,SW,225,0.0,0.0,64,0.00,,,0.00,meteohub,2013-01-29 19:13:00,
2013-01-29 11:18:00,57.2,44.2,29.76,NE,45,0.0,0.0,62,0.00,,,0.00,meteohub,2013-01-29 19:18:00,
2013-01-29 11:23:00,57.7,44.8,29.76,NW,315,0.0,0.0,62,0.00,,,0.00,meteohub,2013-01-29 19:23:00,
2013-01-29 11:28:00,57.9,44.1,29.76,West,270,0.0,0.0,60,0.00,,,0.00,meteohub,2013-01-29 19:28:00,
2013-01-29 11:33:00,58.3,44.1,29.75,South,180,0.0,0.0,59,0.00,,,0.00,meteohub,2013-01-29 19:33:00,
2013-01-29 11:38:00,58.8,45.0,29.75,SW,225,0.0,0.0,60,0.00,,,0.00,meteohub,2013-01-29 19:38:00,
2013-01-29 11:44:00,59.2,44.8,29.74,SSE,158,0.0,0.0,59,0.00,,,0.00,meteohub,2013-01-29 19:44:00,
2013-01-29 11:49:00,59.4,44.1,29.75,SSW,203,0.0,0.0,57,0.00,,,0.00,meteohub,2013-01-29 19:49:00,
2013-01-29 11:54:00,60.1,44.8,29.74,SW,225,0.0,0.0,57,0.00,,,0.00,meteohub,2013-01-29 19:54:00,
2013-01-29 11:59:00,60.6,44.4,29.74,SW,225,0.0,0.0,55,0.00,,,0.00,meteohub,2013-01-29 19:59:00,
2013-01-29 12:01:00,60.6,44.4,29.74,SW,225,0.0,0.0,55,0.00,,,0.00,meteohub,2013-01-29 20:01:00,
2013-01-29 12:06:00,60.6,44.4,29.73,SW,225,0.0,0.0,55,0.00,,,0.00,meteohub,2013-01-29 20:06:00,
2013-01-29 12:12:00,61.2,44.4,29.73,NW,315,0.0,0.0,54,0.00,,,0.00,meteohub,2013-01-29 20:12:00,
2013-01-29 12:17:00,61.3,44.6,29.73,West,270,0.0,0.0,54,0.00,,,0.00,meteohub,2013-01-29 20:17:00,
2013-01-29 12:22:00,61.7,44.4,29.73,West,270,0.0,0.0,53,0.00,,,0.00,meteohub,2013-01-29 20:22:00,
2013-01-29 12:27:00,61.9,44.6,29.72,North,0,0.0,0.0,53,0.00,,,0.00,meteohub,2013-01-29 20:27:00,
2013-01-29 12:32:00,62.2,45.0,29.72,NE,45,0.0,0.0,53,0.00,,,0.00,meteohub,2013-01-29 20:32:00,
2013-01-29 12:37:00,62.6,44.8,29.72,South,180,0.0,0.0,52,0.00,,,0.00,meteohub,2013-01-29 20:37:00,
2013-01-29 12:42:00,63.0,45.1,29.71,SW,225,0.0,0.0,52,0.00,,,0.00,meteohub,2013-01-29 20:42:00,
2013-01-29 12:47:00,63.5,45.5,29.71,SE,135,0.0,0.0,52,0.00,,,0.00,meteohub,2013-01-29 20:47:00,
2013-01-29 12:52:00,64.2,46.2,29.70,SE,135,0.0,0.0,52,0.00,,,0.00,meteohub,2013-01-29 20:52:00,
2013-01-29 12:57:00,64.6,46.6,29.70,SE,135,0.0,0.0,52,0.00,,,0.00,meteohub,2013-01-29 20:57:00,
2013-01-29 13:02:00,64.8,46.2,29.70,SW,225,0.0,0.0,51,0.00,,,0.00,meteohub,2013-01-29 21:02:00,
2013-01-29 13:07:00,64.6,46.0,29.70,North,0,0.0,0.0,51,0.00,,,0.00,meteohub,2013-01-29 21:07:00,
2013-01-29 13:12:00,64.6,46.0,29.69,SW,225,0.0,0.0,51,0.00,,,0.00,meteohub,2013-01-29 21:12:00,
2013-01-29 13:17:00,64.6,45.5,29.69,SW,225,0.0,0.0,50,0.00,,,0.00,meteohub,2013-01-29 21:17:00,
2013-01-29 13:22:00,64.8,45.7,29.69,SW,225,0.0,0.0,50,0.00,,,0.00,meteohub,2013-01-29 21:22:00,
2013-01-29 13:27:00,64.8,45.7,29.69,SE,135,0.0,0.0,50,0.00,,,0.00,meteohub,2013-01-29 21:27:00,
2013-01-29 13:32:00,64.0,45.5,29.68,East,90,0.0,0.0,51,0.00,,,0.00,meteohub,2013-01-29 21:32:00,
2013-01-29 13:37:00,63.0,45.5,29.68,East,90,0.0,0.0,53,0.00,,,0.00,meteohub,2013-01-29 21:37:00,
2013-01-29 13:42:00,61.5,45.7,29.68,SE,135,0.0,0.0,56,0.00,,,0.00,meteohub,2013-01-29 21:42:00,
2013-01-29 13:47:00,61.0,45.7,29.68,ESE,113,0.0,0.0,57,0.00,,,0.00,meteohub,2013-01-29 21:47:00,
2013-01-29 13:52:00,60.8,46.4,29.68,SE,135,0.0,0.0,59,0.00,,,0.00,meteohub,2013-01-29 21:52:00,
2013-01-29 13:58:00,60.8,46.4,29.68,South,180,0.0,0.0,59,0.00,,,0.00,meteohub,2013-01-29 21:58:00,
2013-01-29 14:03:00,60.8,46.4,29.67,SE,135,0.0,0.0,59,0.00,,,0.00,meteohub,2013-01-29 22:03:00,
2013-01-29 14:08:00,61.2,46.8,29.67,East,90,0.0,0.0,59,0.00,,,0.00,meteohub,2013-01-29 22:08:00,
2013-01-29 14:13:00,61.3,46.9,29.67,SE,135,0.0,0.0,59,0.00,,,0.00,meteohub,2013-01-29 22:13:00,
2013-01-29 14:18:00,60.8,46.4,29.66,East,90,0.0,0.0,59,0.00,,,0.00,meteohub,2013-01-29 22:18:00,
2013-01-29 14:23:00,60.8,46.4,29.66,SE,135,0.0,0.0,59,0.00,,,0.00,meteohub,2013-01-29 22:23:00,
2013-01-29 14:28:00,60.8,46.4,29.67,South,180,0.0,0.0,59,0.00,,,0.00,meteohub,2013-01-29 22:28:00,
2013-01-29 14:33:00,61.0,46.6,29.66,SE,135,0.0,0.0,59,0.00,,,0.00,meteohub,2013-01-29 22:33:00,
2013-01-29 14:38:00,61.5,47.5,29.66,SE,135,0.0,0.0,60,0.00,,,0.00,meteohub,2013-01-29 22:38:00,
2013-01-29 14:43:00,62.1,47.5,29.66,SE,135,0.0,0.0,59,0.00,,,0.00,meteohub,2013-01-29 22:43:00,
2013-01-29 14:48:00,62.2,47.7,29.66,South,180,0.0,0.0,59,0.00,,,0.00,meteohub,2013-01-29 22:48:00,
2013-01-29 14:53:00,62.2,47.3,29.66,SE,135,0.0,0.0,58,0.00,,,0.00,meteohub,2013-01-29 22:53:00,
2013-01-29 14:58:00,61.2,45.3,29.65,SE,135,0.0,0.0,56,0.00,,,0.00,meteohub,2013-01-29 22:58:00,
2013-01-29 15:03:00,60.6,45.7,29.66,South,180,0.0,0.0,58,0.00,,,0.00,meteohub,2013-01-29 23:03:00,
2013-01-29 15:08:00,60.1,45.7,29.66,East,90,0.0,0.0,59,0.00,,,0.00,meteohub,2013-01-29 23:08:00,
2013-01-29 15:14:00,60.4,46.4,29.66,SE,135,0.0,0.0,60,0.00,,,0.00,meteohub,2013-01-29 23:14:00,
2013-01-29 15:19:00,61.0,46.6,29.66,North,0,0.0,0.0,59,0.00,,,0.00,meteohub,2013-01-29 23:19:00,
2013-01-29 15:24:00,61.7,47.3,29.66,SE,135,0.0,0.0,59,0.00,,,0.00,meteohub,2013-01-29 23:24:00,
2013-01-29 15:29:00,61.9,46.0,29.66,SE,135,0.0,0.0,56,0.00,,,0.00,meteohub,2013-01-29 23:29:00,
2013-01-29 15:34:00,61.3,45.5,29.66,East,90,0.0,0.0,56,0.00,,,0.00,meteohub,2013-01-29 23:34:00,
2013-01-29 15:39:00,61.2,45.3,29.67,East,90,0.0,0.0,56,0.00,,,0.00,meteohub,2013-01-29 23:39:00,
2013-01-29 15:44:00,61.2,45.9,29.66,East,90,0.0,0.0,57,0.00,,,0.00,meteohub,2013-01-29 23:44:00,
2013-01-29 15:49:00,61.2,45.9,29.67,East,90,0.0,0.0,57,0.00,,,0.00,meteohub,2013-01-29 23:49:00,
2013-01-29 15:54:00,61.2,45.3,29.66,East,90,0.0,0.0,56,0.00,,,0.00,meteohub,2013-01-29 23:54:00,
2013-01-29 15:59:00,60.4,44.2,29.67,East,90,0.0,0.0,55,0.00,,,0.00,meteohub,2013-01-29 23:59:00,
2013-01-29 16:04:00,60.4,44.2,29.67,East,90,0.0,0.0,55,0.00,,,0.00,meteohub,2013-01-30 00:04:00,
2013-01-29 16:10:00,59.2,44.4,29.67,East,90,0.0,0.0,58,0.00,,,0.00,meteohub,2013-01-30 00:10:00,
2013-01-29 16:15:00,59.2,44.8,29.67,ENE,68,0.0,0.0,59,0.00,,,0.00,meteohub,2013-01-30 00:15:00,
2013-01-29 16:20:00,59.0,44.2,29.68,East,90,0.0,0.0,58,0.00,,,0.00,meteohub,2013-01-30 00:20:00,
2013-01-29 16:25:00,58.6,44.8,29.67,East,90,0.0,0.0,60,0.00,,,0.00,meteohub,2013-01-30 00:25:00,
2013-01-29 16:30:00,58.1,44.2,29.68,East,90,0.0,0.0,60,0.00,,,0.00,meteohub,2013-01-30 00:30:00,
2013-01-29 16:35:00,57.4,43.7,29.68,East,90,0.0,0.0,60,0.00,,,0.00,meteohub,2013-01-30 00:35:00,
2013-01-29 16:40:00,56.7,43.3,29.67,East,90,0.0,0.0,61,0.00,,,0.00,meteohub,2013-01-30 00:40:00,
2013-01-29 16:45:00,55.9,43.2,29.68,North,0,0.0,0.0,62,0.00,,,0.00,meteohub,2013-01-30 00:45:00,
2013-01-29 16:50:00,55.8,43.3,29.66,SE,135,0.0,0.0,63,0.00,,,0.00,meteohub,2013-01-30 00:50:00,
2013-01-29 16:55:00,55.2,43.3,29.67,SE,135,0.0,0.0,64,0.00,,,0.00,meteohub,2013-01-30 00:55:00,
2013-01-29 17:00:00,55.0,43.5,29.67,SE,135,0.0,0.0,65,0.00,,,0.00,meteohub,2013-01-30 01:00:00,
2013-01-29 17:05:00,54.7,43.2,29.67,SE,135,0.0,0.0,65,0.00,,,0.00,meteohub,2013-01-30 01:05:00,
2013-01-29 17:10:00,54.3,43.2,29.67,SE,135,0.0,0.0,66,0.00,,,0.00,meteohub,2013-01-30 01:10:00,
2013-01-29 17:16:00,54.0,43.3,29.67,SE,135,0.0,0.0,67,0.00,,,0.00,meteohub,2013-01-30 01:16:00,
2013-01-29 17:21:00,53.6,43.0,29.67,SE,135,0.0,0.0,67,0.00,,,0.00,meteohub,2013-01-30 01:21:00,
2013-01-29 17:26:00,53.2,43.3,29.68,SE,135,0.0,0.0,69,0.00,,,0.00,meteohub,2013-01-30 01:26:00,
2013-01-29 17:31:00,52.9,43.0,29.69,SE,135,0.0,0.0,69,0.00,,,0.00,meteohub,2013-01-30 01:31:00,
2013-01-29 17:36:00,52.3,42.8,29.68,SE,135,0.0,0.0,70,0.00,,,0.00,meteohub,2013-01-30 01:36:00,
2013-01-29 17:41:00,52.0,42.4,29.69,SE,135,0.0,0.0,70,0.00,,,0.00,meteohub,2013-01-30 01:41:00,
2013-01-29 17:46:00,51.4,42.8,29.69,SE,135,0.0,0.0,72,0.00,,,0.00,meteohub,2013-01-30 01:46:00,
2013-01-29 17:51:00,51.1,42.4,29.70,SE,135,0.0,0.0,72,0.00,,,0.00,meteohub,2013-01-30 01:51:00,
2013-01-29 17:56:00,50.7,42.4,29.70,SE,135,0.0,0.0,73,0.00,,,0.00,meteohub,2013-01-30 01:56:00,
2013-01-29 18:01:00,50.5,42.6,29.70,SE,135,0.0,0.0,74,0.00,,,0.00,meteohub,2013-01-30 02:01:00,
2013-01-29 18:06:00,50.5,42.6,29.70,SE,135,0.0,0.0,74,0.00,,,0.00,meteohub,2013-01-30 02:06:00,
2013-01-29 18:11:00,49.6,42.4,29.70,SE,135,0.0,0.0,76,0.00,,,0.00,meteohub,2013-01-30 02:11:00,
2013-01-29 18:16:00,49.5,42.6,29.70,SE,135,0.0,0.0,77,0.00,,,0.00,meteohub,2013-01-30 02:16:00,
2013-01-29 18:21:00,49.3,42.4,29.71,SE,135,0.0,0.0,77,0.00,,,0.00,meteohub,2013-01-30 02:21:00,
2013-01-29 18:26:00,49.1,42.6,29.71,SE,135,0.0,0.0,78,0.00,,,0.00,meteohub,2013-01-30 02:26:00,
2013-01-29 18:31:00,48.9,42.4,29.71,SE,135,0.0,0.0,78,0.00,,,0.00,meteohub,2013-01-30 02:31:00,
2013-01-29 18:36:00,48.7,42.4,29.71,SE,135,0.0,0.0,79,0.00,,,0.00,meteohub,2013-01-30 02:36:00,
2013-01-29 18:41:00,48.6,42.3,29.71,SE,135,0.0,0.0,79,0.00,,,0.00,meteohub,2013-01-30 02:41:00,
2013-01-29 18:47:00,48.6,42.6,29.71,SE,135,0.0,0.0,80,0.00,,,0.00,meteohub,2013-01-30 02:47:00,
2013-01-29 18:52:00,48.6,42.6,29.71,SE,135,0.0,0.0,80,0.00,,,0.00,meteohub,2013-01-30 02:52:00,
2013-01-29 18:57:00,48.6,43.0,29.71,SE,135,0.0,0.0,81,0.00,,,0.00,meteohub,2013-01-30 02:57:00,
2013-01-29 19:02:00,48.6,43.0,29.71,SE,135,0.0,0.0,81,0.00,,,0.00,meteohub,2013-01-30 03:02:00,
2013-01-29 19:07:00,48.6,43.0,29.72,SE,135,0.0,0.0,81,0.00,,,0.00,meteohub,2013-01-30 03:07:00,
2013-01-29 19:12:00,48.6,43.0,29.71,SE,135,0.0,0.0,81,0.00,,,0.00,meteohub,2013-01-30 03:12:00,
2013-01-29 19:17:00,48.4,42.8,29.72,SE,135,0.0,0.0,81,0.00,,,0.00,meteohub,2013-01-30 03:17:00,
2013-01-29 19:22:00,48.4,42.8,29.72,SE,135,0.0,0.0,81,0.00,,,0.00,meteohub,2013-01-30 03:22:00,
2013-01-29 19:27:00,48.2,42.6,29.73,SE,135,0.0,0.0,81,0.00,,,0.00,meteohub,2013-01-30 03:27:00,
2013-01-29 19:32:00,48.2,42.6,29.72,SE,135,0.0,0.0,81,0.00,,,0.00,meteohub,2013-01-30 03:32:00,
2013-01-29 19:37:00,48.4,42.8,29.72,SE,135,0.0,0.0,81,0.00,,,0.00,meteohub,2013-01-30 03:37:00,
2013-01-29 19:42:00,48.4,42.8,29.73,SE,135,0.0,0.0,81,0.00,,,0.00,meteohub,2013-01-30 03:42:00,
2013-01-29 19:47:00,48.4,43.2,29.73,SE,135,0.0,0.0,82,0.00,,,0.00,meteohub,2013-01-30 03:47:00,
2013-01-29 19:52:00,48.4,43.2,29.73,SE,135,0.0,0.0,82,0.00,,,0.00,meteohub,2013-01-30 03:52:00,
2013-01-29 19:57:00,48.2,43.0,29.73,SE,135,0.0,0.0,82,0.00,,,0.00,meteohub,2013-01-30 03:57:00,
2013-01-29 20:02:00,48.2,43.0,29.73,SE,135,0.0,0.0,82,0.00,,,0.00,meteohub,2013-01-30 04:02:00,
2013-01-29 20:07:00,48.2,43.0,29.72,SE,135,0.0,0.0,82,0.00,,,0.00,meteohub,2013-01-30 04:07:00,
2013-01-29 20:12:00,48.0,43.2,29.73,SE,135,0.0,0.0,83,0.00,,,0.00,meteohub,2013-01-30 04:12:00,
2013-01-29 20:17:00,48.0,43.2,29.73,SE,135,0.0,0.0,83,0.00,,,0.00,meteohub,2013-01-30 04:17:00,
2013-01-29 20:22:00,47.8,43.2,29.73,SE,135,0.0,0.0,84,0.00,,,0.00,meteohub,2013-01-30 04:22:00,
2013-01-29 20:27:00,47.8,43.2,29.73,SE,135,0.0,0.0,84,0.00,,,0.00,meteohub,2013-01-30 04:27:00,
2013-01-29 20:32:00,47.8,43.2,29.73,SE,135,0.0,0.0,84,0.00,,,0.00,meteohub,2013-01-30 04:32:00,
2013-01-29 20:37:00,47.7,43.0,29.73,SE,135,0.0,0.0,84,0.00,,,0.00,meteohub,2013-01-30 04:37:00,
2013-01-29 20:42:00,47.5,42.8,29.73,SE,135,0.0,0.0,84,0.00,,,0.00,meteohub,2013-01-30 04:42:00,
2013-01-29 20:47:00,47.3,42.8,29.73,SE,135,0.0,0.0,84,0.00,,,0.00,meteohub,2013-01-30 04:47:00,
2013-01-29 20:52:00,47.1,42.6,29.73,SE,135,0.0,0.0,84,0.00,,,0.00,meteohub,2013-01-30 04:52:00,
2013-01-29 20:57:00,46.9,42.4,29.73,SE,135,0.0,0.0,84,0.00,,,0.00,meteohub,2013-01-30 04:57:00,
2013-01-29 21:00:00,46.9,42.4,29.73,SE,135,0.0,0.0,84,0.00,,,0.00,meteohub,2013-01-30 05:00:00,
2013-01-29 21:03:00,46.8,42.4,29.73,SE,135,0.0,0.0,85,0.00,,,0.00,meteohub,2013-01-30 05:03:00,
2013-01-29 21:04:00,46.8,42.4,29.73,SE,135,0.0,0.0,85,0.00,,,0.00,meteohub,2013-01-30 05:04:00,
2013-01-29 21:05:00,46.8,42.4,29.73,SE,135,0.0,0.0,85,0.00,,,0.00,meteohub,2013-01-30 05:05:00,
2013-01-29 21:10:00,46.8,42.4,29.73,SE,135,0.0,0.0,85,0.00,,,0.00,meteohub,2013-01-30 05:10:00,
2013-01-29 21:15:00,46.6,42.3,29.74,SE,135,0.0,0.0,85,0.00,,,0.00,meteohub,2013-01-30 05:15:00,
2013-01-29 21:20:00,46.4,42.1,29.73,SE,135,0.0,0.0,85,0.00,,,0.00,meteohub,2013-01-30 05:20:00,
2013-01-29 21:25:00,46.4,42.4,29.74,SE,135,0.0,0.0,86,0.00,,,0.00,meteohub,2013-01-30 05:25:00,
2013-01-29 21:30:00,46.2,42.3,29.73,SE,135,0.0,0.0,86,0.00,,,0.00,meteohub,2013-01-30 05:30:00,
2013-01-29 21:35:00,46.0,42.4,29.73,SE,135,0.0,0.0,87,0.00,,,0.00,meteohub,2013-01-30 05:35:00,
2013-01-29 21:41:00,46.0,42.4,29.73,SE,135,0.0,0.0,87,0.00,,,0.00,meteohub,2013-01-30 05:41:00,
2013-01-29 21:46:00,45.9,42.3,29.73,SE,135,0.0,0.0,87,0.00,,,0.00,meteohub,2013-01-30 05:46:00,
2013-01-29 21:51:00,45.9,42.3,29.73,SE,135,0.0,0.0,87,0.00,,,0.00,meteohub,2013-01-30 05:51:00,
2013-01-29 21:56:00,45.9,42.4,29.73,SE,135,0.0,0.0,88,0.00,,,0.00,meteohub,2013-01-30 05:56:00,
2013-01-29 22:01:00,45.7,42.3,29.73,SE,135,0.0,0.0,88,0.00,,,0.00,meteohub,2013-01-30 06:01:00,
2013-01-29 22:06:00,45.7,42.3,29.73,SE,135,0.0,0.0,88,0.00,,,0.00,meteohub,2013-01-30 06:06:00,
2013-01-29 22:11:00,45.5,42.1,29.73,SE,135,0.0,0.0,88,0.00,,,0.00,meteohub,2013-01-30 06:11:00,
2013-01-29 22:16:00,45.5,42.1,29.73,SE,135,0.0,0.0,88,0.00,,,0.00,meteohub,2013-01-30 06:16:00,
2013-01-29 22:21:00,45.3,41.9,29.73,SE,135,0.0,0.0,88,0.00,,,0.00,meteohub,2013-01-30 06:21:00,
2013-01-29 22:26:00,45.3,41.9,29.73,SE,135,0.0,0.0,88,0.00,,,0.00,meteohub,2013-01-30 06:26:00,
2013-01-29 22:31:00,45.3,41.9,29.72,West,270,0.0,0.0,88,0.00,,,0.00,meteohub,2013-01-30 06:31:00,
2013-01-29 22:36:00,45.3,41.9,29.72,West,270,0.0,0.0,88,0.00,,,0.00,meteohub,2013-01-30 06:36:00,
2013-01-29 22:42:00,45.1,41.7,29.72,West,270,0.0,0.0,88,0.00,,,0.00,meteohub,2013-01-30 06:42:00,
2013-01-29 22:47:00,45.0,41.5,29.72,West,270,0.0,0.0,88,0.00,,,0.00,meteohub,2013-01-30 06:47:00,
2013-01-29 22:52:00,44.8,41.4,29.72,West,270,0.0,0.0,88,0.00,,,0.00,meteohub,2013-01-30 06:52:00,
2013-01-29 22:57:00,44.6,41.2,29.72,West,270,0.0,0.0,88,0.00,,,0.00,meteohub,2013-01-30 06:57:00,
2013-01-29 23:02:00,44.2,41.2,29.73,West,270,0.0,0.0,89,0.00,,,0.00,meteohub,2013-01-30 07:02:00,
2013-01-29 23:07:00,44.1,41.0,29.73,West,270,0.0,0.0,89,0.00,,,0.00,meteohub,2013-01-30 07:07:00,
2013-01-29 23:12:00,43.9,40.8,29.72,West,270,0.0,0.0,89,0.00,,,0.00,meteohub,2013-01-30 07:12:00,
2013-01-29 23:17:00,43.9,40.8,29.73,West,270,0.0,0.0,89,0.00,,,0.00,meteohub,2013-01-30 07:17:00,
2013-01-29 23:22:00,43.9,41.2,29.73,West,270,0.0,0.0,90,0.00,,,0.00,meteohub,2013-01-30 07:22:00,
2013-01-29 23:27:00,44.1,41.4,29.72,West,270,0.0,0.0,90,0.00,,,0.00,meteohub,2013-01-30 07:27:00,
2013-01-29 23:32:00,44.2,41.5,29.72,West,270,1.0,0.0,90,0.00,,,0.00,meteohub,2013-01-30 07:32:00,
2013-01-29 23:37:00,44.2,41.7,29.72,West,270,0.0,1.0,91,0.00,,,0.00,meteohub,2013-01-30 07:37:00,
2013-01-29 23:42:00,44.4,41.9,29.72,West,270,0.0,1.0,91,0.00,,,0.00,meteohub,2013-01-30 07:42:00,
2013-01-29 23:47:00,44.4,41.9,29.72,West,270,0.0,1.0,91,0.00,,,0.00,meteohub,2013-01-30 07:47:00,
2013-01-29 23:52:00,44.6,41.9,29.72,West,270,0.0,0.0,90,0.00,,,0.00,meteohub,2013-01-30 07:52:00,
2013-01-29 23:57:00,44.8,42.1,29.72,West,270,0.0,0.0,90,0.00,,,0.00,meteohub,2013-01-30 07:57:00,